Time;durP1;ratioP1;P1;durP2;ratioP2;P2;SDS_P1;SDS_P2;PMS_P1;PMS_P2;Temp;Humidity;BMP_temperature;BMP_pressure;BME280_temperature;BME280_humidity;BME280_pressure;Samples;Min_cycle;Max_cycle;Signal;HPM_P1;HPM_P2
2021/10/16 00:00:13;;;;;;;1999.90;999.90;;;4.40;99.90;;;;;;5036870;28;20079;-84
2021/10/16 00:02:38;;;;;;;1999.90;999.90;;;4.40;99.90;;;;;;5036953;28;20028;-86
2021/10/16 00:05:05;;;;;;;1999.90;999.90;;;4.30;99.90;;;;;;5036466;28;20025;-84
2021/10/16 00:07:32;;;;;;;1999.90;999.90;;;4.30;99.90;;;;;;5036161;28;20022;-87
2021/10/16 00:09:58;;;;;;;1999.90;999.90;;;4.30;99.90;;;;;;5036742;28;20032;-85
2021/10/16 00:12:24;;;;;;;1999.90;999.90;;;4.30;99.90;;;;;;5037074;28;20028;-85
2021/10/16 00:14:50;;;;;;;1999.90;999.90;;;4.40;99.90;;;;;;5036273;28;20029;-87
2021/10/16 00:17:16;;;;;;;1999.90;999.90;;;4.30;99.90;;;;;;5036787;28;20064;-85
2021/10/16 00:19:42;;;;;;;1999.90;999.90;;;4.30;99.90;;;;;;5035960;28;20033;-85
2021/10/16 00:22:08;;;;;;;1999.90;999.90;;;4.30;99.90;;;;;;5036809;28;20026;-86
2021/10/16 00:24:34;;;;;;;1999.90;999.90;;;4.30;99.90;;;;;;5035959;28;20121;-85
2021/10/16 00:27:00;;;;;;;1999.90;999.90;;;4.20;99.90;;;;;;5036447;28;20448;-84
2021/10/16 00:29:26;;;;;;;1999.90;999.90;;;4.20;99.90;;;;;;5036288;28;20071;-83
2021/10/16 00:31:51;;;;;;;1999.90;999.90;;;4.20;99.90;;;;;;5036168;28;20136;-85
2021/10/16 00:34:17;;;;;;;1999.90;999.90;;;4.20;99.90;;;;;;5036271;28;20034;-84
2021/10/16 00:36:43;;;;;;;1999.90;999.90;;;4.10;99.90;;;;;;5036171;28;20021;-85
2021/10/16 00:39:09;;;;;;;1999.90;999.90;;;4.10;99.90;;;;;;5035767;28;20114;-83
2021/10/16 00:41:34;;;;;;;1999.90;999.90;;;4.10;99.90;;;;;;5035978;28;20026;-86
2021/10/16 00:44:18;;;;;;;1999.90;999.90;;;4.00;99.90;;;;;;5036104;28;20025;-84
2021/10/16 00:46:45;;;;;;;1999.90;999.90;;;4.00;99.90;;;;;;5036410;28;20053;-85
2021/10/16 00:49:12;;;;;;;1999.90;999.90;;;4.00;99.90;;;;;;5035960;28;20022;-83
2021/10/16 00:51:38;;;;;;;1999.90;999.90;;;3.90;99.90;;;;;;5036066;28;20049;-87
2021/10/16 00:54:07;;;;;;;1999.90;999.90;;;3.90;99.90;;;;;;5035305;28;20029;-83
2021/10/16 00:56:35;;;;;;;1999.90;999.90;;;3.80;99.90;;;;;;5035704;28;20064;-85
2021/10/16 00:59:02;;;;;;;1999.90;999.90;;;3.80;99.90;;;;;;5036212;28;20030;-84
2021/10/16 01:01:30;;;;;;;1999.90;999.90;;;3.80;99.90;;;;;;5035482;28;20084;-83
2021/10/16 01:03:55;;;;;;;1999.90;999.90;;;3.80;99.90;;;;;;5035555;28;20033;-83
2021/10/16 01:06:21;;;;;;;1999.90;999.90;;;3.80;99.90;;;;;;5036019;28;20055;-83
2021/10/16 01:08:47;;;;;;;1999.90;999.90;;;3.70;99.90;;;;;;5035515;28;20590;-86
2021/10/16 01:11:13;;;;;;;1999.90;999.90;;;3.70;99.90;;;;;;5035875;28;20472;-84
2021/10/16 01:13:39;;;;;;;1999.90;999.90;;;3.70;99.90;;;;;;5035387;28;20036;-86
2021/10/16 01:16:06;;;;;;;1999.90;999.90;;;3.80;99.90;;;;;;5034728;28;20030;-83
2021/10/16 01:18:34;;;;;;;1999.90;999.90;;;3.80;99.90;;;;;;5035109;28;20396;-83
2021/10/16 01:21:05;;;;;;;1999.90;999.90;;;3.70;99.90;;;;;;5035925;28;20472;-85
2021/10/16 01:23:33;;;;;;;1999.90;999.90;;;3.70;99.90;;;;;;5035499;28;20053;-83
2021/10/16 01:26:03;;;;;;;1999.90;999.90;;;3.70;99.90;;;;;;5035213;28;20024;-84
2021/10/16 01:28:29;;;;;;;1999.90;999.90;;;3.70;99.90;;;;;;5036179;28;20064;-84
2021/10/16 01:30:56;;;;;;;1999.90;999.90;;;3.70;99.90;;;;;;5034928;28;20057;-84
2021/10/16 01:33:26;;;;;;;1999.90;999.90;;;3.60;99.90;;;;;;5034957;28;20034;-86
2021/10/16 01:36:03;;;;;;;1999.90;999.90;;;3.60;99.90;;;;;;5036193;28;20030;-85
2021/10/16 01:38:30;;;;;;;1999.90;999.90;;;3.60;99.90;;;;;;5035434;28;20362;-85
2021/10/16 01:40:56;;;;;;;1999.90;999.90;;;3.70;99.90;;;;;;5034888;28;20026;-85
2021/10/16 01:43:22;;;;;;;1999.90;999.90;;;3.60;99.90;;;;;;5035024;28;20501;-85
2021/10/16 01:45:51;;;;;;;1999.90;999.90;;;3.60;99.90;;;;;;5034268;28;20033;-85
2021/10/16 01:48:21;;;;;;;1999.90;999.90;;;3.60;99.90;;;;;;5035214;28;20034;-86
2021/10/16 01:50:47;;;;;;;1999.90;999.90;;;3.70;99.90;;;;;;5035195;28;20469;-84
2021/10/16 01:53:13;;;;;;;1999.90;999.90;;;3.70;99.90;;;;;;5034733;28;20029;-84
2021/10/16 01:55:38;;;;;;;1999.90;999.90;;;3.70;99.90;;;;;;5035800;28;20044;-85
2021/10/16 01:58:09;;;;;;;1999.90;999.90;;;3.80;99.90;;;;;;5036435;28;20029;-85
2021/10/16 02:00:35;;;;;;;1999.90;999.90;;;3.70;99.90;;;;;;5035034;28;20025;-85
2021/10/16 02:03:01;;;;;;;1999.90;999.90;;;3.80;99.90;;;;;;5034790;28;20044;-87
2021/10/16 02:05:27;;;;;;;1999.90;999.90;;;3.80;99.90;;;;;;5035198;28;20470;-84
2021/10/16 02:07:53;;;;;;;1999.90;999.90;;;3.90;99.90;;;;;;5034922;28;20028;-85
2021/10/16 02:10:18;;;;;;;1999.90;999.90;;;3.90;99.90;;;;;;5034856;28;20021;-85
2021/10/16 02:12:45;;;;;;;1999.90;999.90;;;4.00;99.90;;;;;;5034461;28;20026;-85
2021/10/16 02:15:11;;;;;;;1999.90;999.90;;;4.00;99.90;;;;;;5034805;28;20041;-84
2021/10/16 02:17:36;;;;;;;1999.90;999.90;;;4.10;99.90;;;;;;5035062;28;20511;-85
2021/10/16 02:20:02;;;;;;;1999.90;999.90;;;4.20;99.90;;;;;;5034452;28;20026;-86
2021/10/16 02:22:28;;;;;;;1999.90;999.90;;;4.20;99.90;;;;;;5035844;28;20053;-83
2021/10/16 02:24:54;;;;;;;1999.90;999.90;;;4.20;99.90;;;;;;5039960;28;20030;-86
2021/10/16 02:27:19;;;;;;;1999.90;999.90;;;4.20;99.90;;;;;;5043694;28;20025;-84
2021/10/16 02:29:45;;;;;;;1999.90;999.90;;;4.20;99.90;;;;;;5046155;28;20018;-85
2021/10/16 02:32:11;;;;;;;1999.90;999.90;;;4.30;99.90;;;;;;5030934;28;20021;-84
2021/10/16 02:34:37;;;;;;;1999.90;999.90;;;4.30;99.90;;;;;;5030799;28;20049;-85
2021/10/16 02:37:03;;;;;;;1999.90;999.90;;;4.40;99.90;;;;;;5030439;28;20021;-83
2021/10/16 02:39:29;;;;;;;1999.90;999.90;;;4.40;99.90;;;;;;5029377;28;20034;-83
2021/10/16 02:41:56;;;;;;;1999.90;999.90;;;4.40;99.90;;;;;;5023933;28;20033;-83
2021/10/16 02:44:22;;;;;;;1999.90;999.90;;;4.50;99.90;;;;;;5022944;28;20465;-85
2021/10/16 02:46:49;;;;;;;1999.90;999.90;;;4.50;99.90;;;;;;5023236;28;20032;-84
2021/10/16 02:49:14;;;;;;;1999.90;999.90;;;4.50;99.90;;;;;;5023163;28;20048;-85
2021/10/16 02:51:40;;;;;;;1999.90;999.90;;;4.60;99.90;;;;;;5022444;28;20029;-87
2021/10/16 02:54:06;;;;;;;1999.90;999.90;;;4.60;99.90;;;;;;5022097;28;20029;-87
2021/10/16 02:56:32;;;;;;;1999.90;999.90;;;4.60;99.90;;;;;;5021750;28;20036;-84
2021/10/16 02:58:57;;;;;;;1999.90;999.90;;;4.60;99.90;;;;;;5021779;28;20389;-87
2021/10/16 03:01:23;;;;;;;1999.90;999.90;;;4.70;99.90;;;;;;5021477;28;20029;-87
2021/10/16 03:03:49;;;;;;;1999.90;999.90;;;4.70;99.90;;;;;;5021719;28;20029;-84
2021/10/16 03:06:14;;;;;;;1999.90;999.90;;;4.80;99.90;;;;;;5022356;28;20029;-84
2021/10/16 03:08:40;;;;;;;1999.90;999.90;;;4.80;99.90;;;;;;5021807;28;20030;-84
2021/10/16 03:11:06;;;;;;;1999.90;999.90;;;4.80;99.90;;;;;;5022124;28;20037;-87
2021/10/16 03:13:33;;;;;;;1999.90;999.90;;;4.90;99.90;;;;;;5021396;28;20037;-86
2021/10/16 03:15:59;;;;;;;1999.90;999.90;;;4.90;99.90;;;;;;5021627;28;20124;-85
2021/10/16 03:18:25;;;;;;;1999.90;999.90;;;4.90;99.90;;;;;;5021394;28;20427;-84
2021/10/16 03:20:50;;;;;;;1999.90;999.90;;;4.90;99.90;;;;;;5021208;28;20030;-83
2021/10/16 03:23:16;;;;;;;1999.90;999.90;;;5.00;99.90;;;;;;5021367;28;20037;-85
2021/10/16 03:25:42;;;;;;;1999.90;999.90;;;5.00;99.90;;;;;;5021661;28;20087;-86
2021/10/16 03:28:07;;;;;;;1999.90;999.90;;;5.00;99.90;;;;;;5021454;28;20034;-82
2021/10/16 03:30:33;;;;;;;1999.90;999.90;;;5.10;99.90;;;;;;5026660;28;20049;-87
2021/10/16 03:32:59;;;;;;;1999.90;999.90;;;5.10;99.90;;;;;;5037533;28;20025;-85
2021/10/16 03:35:25;;;;;;;1999.90;999.90;;;5.20;99.90;;;;;;5038928;28;20033;-83
2021/10/16 03:37:50;;;;;;;1999.90;999.90;;;5.20;99.90;;;;;;5037559;28;20108;-84
2021/10/16 03:40:16;;;;;;;1999.90;999.90;;;5.20;99.90;;;;;;5037248;28;20064;-84
2021/10/16 03:42:42;;;;;;;1999.90;999.90;;;5.30;99.90;;;;;;5038725;28;20017;-84
2021/10/16 03:45:07;;;;;;;1999.90;999.90;;;5.30;99.90;;;;;;5037161;28;20036;-86
2021/10/16 03:47:33;;;;;;;1999.90;999.90;;;5.30;99.90;;;;;;5037728;28;20032;-84
2021/10/16 03:49:59;;;;;;;1999.90;999.90;;;5.40;99.90;;;;;;5037450;28;20026;-84
2021/10/16 03:52:25;;;;;;;1999.90;999.90;;;5.40;99.90;;;;;;5037342;28;20483;-85
2021/10/16 03:54:50;;;;;;;1999.90;999.90;;;5.40;99.90;;;;;;5037154;28;20381;-86
2021/10/16 03:57:16;;;;;;;1999.90;999.90;;;5.40;99.90;;;;;;5037290;28;20026;-86
2021/10/16 03:59:43;;;;;;;1999.90;999.90;;;5.40;99.90;;;;;;5037415;28;20087;-84
2021/10/16 04:02:09;;;;;;;1999.90;999.90;;;5.50;99.90;;;;;;5036637;28;20029;-86
2021/10/16 04:04:35;;;;;;;1999.90;999.90;;;5.50;99.90;;;;;;5037079;28;20072;-84
2021/10/16 04:07:01;;;;;;;1999.90;999.90;;;5.50;99.90;;;;;;5036988;28;20030;-86
2021/10/16 04:09:26;;;;;;;1999.90;999.90;;;5.60;99.90;;;;;;5037522;28;20040;-85
2021/10/16 04:11:53;;;;;;;1999.90;999.90;;;5.50;99.90;;;;;;5036880;28;20084;-85
2021/10/16 04:14:19;;;;;;;1999.90;999.90;;;5.50;99.90;;;;;;5036601;28;20100;-83
2021/10/16 04:16:45;;;;;;;1999.90;999.90;;;5.50;99.90;;;;;;5036783;28;20029;-85
2021/10/16 04:19:10;;;;;;;1999.90;999.90;;;5.60;99.90;;;;;;5037127;28;20079;-84
2021/10/16 04:21:36;;;;;;;1999.90;999.90;;;5.60;99.90;;;;;;5036985;28;20053;-86
2021/10/16 04:24:02;;;;;;;1999.90;999.90;;;5.60;99.90;;;;;;5037989;28;20041;-86
2021/10/16 04:26:28;;;;;;;1999.90;999.90;;;5.50;99.90;;;;;;5036552;28;20359;-84
2021/10/16 04:28:54;;;;;;;1999.90;999.90;;;5.60;99.90;;;;;;5036437;28;20029;-85
2021/10/16 04:31:20;;;;;;;1999.90;999.90;;;5.60;99.90;;;;;;5036114;28;20041;-86
2021/10/16 04:33:46;;;;;;;1999.90;999.90;;;5.60;99.90;;;;;;5036495;28;20137;-86
2021/10/16 04:36:11;;;;;;;1999.90;999.90;;;5.60;99.90;;;;;;5036340;28;20072;-86
2021/10/16 04:38:37;;;;;;;1999.90;999.90;;;5.60;99.90;;;;;;5037319;28;20037;-82
2021/10/16 04:41:03;;;;;;;1999.90;999.90;;;5.70;99.90;;;;;;5036364;28;20469;-86
2021/10/16 04:43:29;;;;;;;1999.90;999.90;;;5.70;99.90;;;;;;5040315;28;20030;-84
2021/10/16 04:45:56;;;;;;;1999.90;999.90;;;5.70;99.90;;;;;;5035036;28;20028;-85
2021/10/16 04:48:21;;;;;;;1999.90;999.90;;;6.30;99.90;;;;;;5035608;28;20034;-85
2021/10/16 04:50:48;;;;;;;1999.90;999.90;;;6.30;99.90;;;;;;5034276;28;20117;-86
2021/10/16 04:53:13;;;;;;;1999.90;999.90;;;6.20;99.90;;;;;;5035179;28;20034;-84
2021/10/16 04:55:39;;;;;;;1999.90;999.90;;;6.20;99.90;;;;;;5035302;28;20052;-83
2021/10/16 04:58:05;;;;;;;1999.90;999.90;;;6.20;99.90;;;;;;5035519;28;20026;-86
2021/10/16 05:00:31;;;;;;;1999.90;999.90;;;6.10;99.90;;;;;;5034885;28;20029;-89
2021/10/16 05:02:56;;;;;;;1999.90;999.90;;;6.10;99.90;;;;;;5035147;28;20421;-87
2021/10/16 05:05:22;;;;;;;1999.90;999.90;;;6.10;99.90;;;;;;5035105;28;20529;-84
2021/10/16 05:07:48;;;;;;;1999.90;999.90;;;6.00;99.90;;;;;;5034869;28;20041;-88
2021/10/16 05:10:14;;;;;;;1999.90;999.90;;;6.00;99.90;;;;;;5037663;28;20037;-86
2021/10/16 05:12:39;;;;;;;1999.90;999.90;;;6.10;99.90;;;;;;5035186;28;20045;-86
2021/10/16 05:15:05;;;;;;;1999.90;999.90;;;6.10;99.90;;;;;;5035488;28;20041;-83
2021/10/16 05:17:31;;;;;;;1999.90;999.90;;;6.20;99.90;;;;;;5035375;28;20021;-85
2021/10/16 05:19:57;;;;;;;1999.90;999.90;;;6.20;99.90;;;;;;5035749;28;20121;-86
2021/10/16 05:22:23;;;;;;;1999.90;999.90;;;6.20;99.90;;;;;;5035646;28;20021;-84
2021/10/16 05:24:48;;;;;;;1999.90;999.90;;;6.20;99.90;;;;;;5035068;28;20035;-86
2021/10/16 05:27:14;;;;;;;1999.90;999.90;;;6.20;99.90;;;;;;5034792;28;20036;-86
2021/10/16 05:29:40;;;;;;;1999.90;999.90;;;6.20;99.90;;;;;;5035027;28;20036;-87
2021/10/16 05:32:06;;;;;;;1999.90;999.90;;;6.20;99.90;;;;;;5018791;28;20104;-85
2021/10/16 05:34:32;;;;;;;1999.90;999.90;;;6.20;99.90;;;;;;5018901;28;20037;-85
2021/10/16 05:36:58;;;;;;;1999.90;999.90;;;6.20;99.90;;;;;;5018153;28;20080;-86
2021/10/16 05:39:23;;;;;;;1999.90;999.90;;;6.20;99.90;;;;;;5018966;28;20037;-87
2021/10/16 05:41:49;;;;;;;1999.90;999.90;;;6.30;99.90;;;;;;5018408;28;20022;-86
2021/10/16 05:44:15;;;;;;;1999.90;999.90;;;6.20;99.90;;;;;;5018346;28;20030;-86
2021/10/16 05:46:41;;;;;;;1999.90;999.90;;;6.10;99.90;;;;;;5018510;28;20029;-86
2021/10/16 05:49:07;;;;;;;1999.90;999.90;;;6.10;99.90;;;;;;5018536;28;20036;-86
2021/10/16 05:51:33;;;;;;;1999.90;999.90;;;6.20;99.90;;;;;;5018676;28;20026;-89
2021/10/16 05:53:58;;;;;;;1999.90;999.90;;;6.20;99.90;;;;;;5018448;28;20124;-85
2021/10/16 05:56:25;;;;;;;1999.90;999.90;;;6.20;99.90;;;;;;5035765;28;20030;-85
2021/10/16 05:58:50;;;;;;;1999.90;999.90;;;6.20;99.90;;;;;;5018652;28;20029;-87
2021/10/16 06:01:16;;;;;;;1999.90;999.90;;;6.30;99.90;;;;;;5017818;28;20022;-87
2021/10/16 06:03:42;;;;;;;1999.90;999.90;;;6.40;99.90;;;;;;5018322;28;20018;-86
2021/10/16 06:06:07;;;;;;;1999.90;999.90;;;6.50;99.90;;;;;;5018771;28;20025;-88
2021/10/16 06:08:33;;;;;;;1999.90;999.90;;;6.50;99.90;;;;;;5018210;28;20091;-86
2021/10/16 06:10:59;;;;;;;1999.90;999.90;;;6.50;99.90;;;;;;5018294;28;20036;-86
2021/10/16 06:13:25;;;;;;;1999.90;999.90;;;6.50;99.90;;;;;;5035452;28;20014;-84
2021/10/16 06:15:50;;;;;;;1999.90;999.90;;;6.50;99.90;;;;;;5017401;28;20362;-86
2021/10/16 06:18:16;;;;;;;1999.90;999.90;;;6.60;99.90;;;;;;5017807;28;20056;-83
2021/10/16 06:20:42;;;;;;;1999.90;999.90;;;6.60;99.90;;;;;;5017720;28;20045;-85
2021/10/16 06:23:08;;;;;;;1999.90;999.90;;;6.60;99.90;;;;;;5035324;28;20517;-86
2021/10/16 06:25:34;;;;;;;1999.90;999.90;;;6.60;99.90;;;;;;5017541;28;20022;-85
2021/10/16 06:28:00;;;;;;;1999.90;999.90;;;6.60;99.90;;;;;;5017886;28;20108;-87
2021/10/16 06:30:25;;;;;;;1999.90;999.90;;;6.70;99.90;;;;;;5021756;28;20133;-89
2021/10/16 06:32:53;;;;;;;1999.90;999.90;;;6.70;99.90;;;;;;5034709;28;20025;-85
2021/10/16 06:35:19;;;;;;;1999.90;999.90;;;8.30;99.90;;;;;;5034362;28;20477;-86
2021/10/16 06:37:44;;;;;;;1999.90;999.90;;;9.00;99.90;;;;;;5033407;28;20079;-87
2021/10/16 06:40:11;;;;;;;1999.90;999.90;;;8.90;99.90;;;;;;5032627;28;20036;-86
2021/10/16 06:42:36;;;;;;;1999.90;999.90;;;8.60;99.90;;;;;;5033780;28;20029;-87
2021/10/16 06:45:03;;;;;;;1999.90;999.90;;;8.30;99.90;;;;;;5034237;28;20026;-86
2021/10/16 06:47:28;;;;;;;1999.90;999.90;;;8.10;99.90;;;;;;5033890;28;20025;-85
2021/10/16 06:49:54;;;;;;;1999.90;999.90;;;7.90;99.90;;;;;;5034192;28;20036;-86
2021/10/16 06:52:20;;;;;;;1999.90;999.90;;;7.90;99.90;;;;;;5033155;28;20024;-86
2021/10/16 06:54:45;;;;;;;1999.90;999.90;;;7.80;99.90;;;;;;5032311;28;20029;-84
2021/10/16 06:57:11;;;;;;;1999.90;999.90;;;9.30;99.90;;;;;;5032797;28;20368;-85
2021/10/16 06:59:37;;;;;;;1999.90;999.90;;;9.90;99.90;;;;;;5033649;28;20039;-85
2021/10/16 07:02:02;;;;;;;1999.90;999.90;;;10.30;99.90;;;;;;5033578;28;20048;-86
2021/10/16 07:04:28;;;;;;;1999.90;999.90;;;10.40;99.90;;;;;;5033154;28;20125;-86
2021/10/16 07:06:54;;;;;;;1999.90;999.90;;;10.60;99.90;;;;;;5033241;28;20026;-88
2021/10/16 07:09:19;;;;;;;1999.90;999.90;;;10.40;99.90;;;;;;5032978;28;20034;-86
2021/10/16 07:11:45;;;;;;;1999.90;999.90;;;10.20;99.90;;;;;;5032960;28;20114;-87
2021/10/16 07:14:11;;;;;;;1999.90;999.90;;;9.90;99.90;;;;;;5034800;28;20029;-86
2021/10/16 07:16:37;;;;;;;1999.90;999.90;;;9.70;99.90;;;;;;5036408;28;20504;-84
2021/10/16 07:19:04;;;;;;;1999.90;999.90;;;9.60;99.90;;;;;;5036226;28;20025;-87
2021/10/16 07:21:29;;;;;;;1999.90;999.90;;;9.50;99.90;;;;;;5036325;28;20057;-86
2021/10/16 07:23:56;;;;;;;1999.90;999.90;;;9.50;99.90;;;;;;5036438;28;20040;-86
2021/10/16 07:26:22;;;;;;;1999.90;999.90;;;9.50;99.90;;;;;;5036488;28;20033;-86
2021/10/16 07:28:48;;;;;;;1999.90;999.90;;;9.60;99.90;;;;;;5036021;28;20025;-85
2021/10/16 07:31:14;;;;;;;1999.90;999.90;;;9.60;99.90;;;;;;5035354;28;20140;-85
2021/10/16 07:33:39;;;;;;;1999.90;999.90;;;9.60;99.90;;;;;;5035542;28;20032;-84
2021/10/16 07:36:05;;;;;;;1999.90;999.90;;;9.70;99.90;;;;;;5035487;28;20037;-88
2021/10/16 07:38:31;;;;;;;1999.90;999.90;;;9.80;99.90;;;;;;5035360;28;20056;-88
2021/10/16 07:40:56;;;;;;;1999.90;999.90;;;9.90;99.90;;;;;;5035608;28;20120;-85
2021/10/16 07:43:24;;;;;;;1999.90;999.90;;;10.10;99.90;;;;;;5035682;28;20025;-87
2021/10/16 07:45:49;;;;;;;1999.90;999.90;;;10.20;99.90;;;;;;5035356;28;20024;-85
2021/10/16 07:48:15;;;;;;;1999.90;999.90;;;10.40;99.90;;;;;;5035209;28;20128;-86
2021/10/16 07:50:41;;;;;;;1999.90;999.90;;;10.50;99.90;;;;;;5035636;28;20025;-86
2021/10/16 07:53:06;;;;;;;1999.90;999.90;;;10.70;99.90;;;;;;5035261;28;20025;-87
2021/10/16 07:55:32;;;;;;;1999.90;999.90;;;10.80;99.90;;;;;;5035480;28;20541;-86
2021/10/16 07:57:59;;;;;;;1999.90;999.90;;;11.00;99.90;;;;;;5035443;28;20029;-86
2021/10/16 08:00:24;;;;;;;1999.90;999.90;;;11.10;99.90;;;;;;5035069;28;20029;-84
2021/10/16 08:02:50;;;;;;;1999.90;999.90;;;11.20;99.90;;;;;;5035283;28;20022;-85
2021/10/16 08:05:17;;;;;;;1999.90;999.90;;;11.40;99.90;;;;;;5034820;28;20036;-86
2021/10/16 08:07:43;;;;;;;1999.90;999.90;;;11.50;99.90;;;;;;5034945;28;20373;-85
2021/10/16 08:10:10;;;;;;;1999.90;999.90;;;11.70;99.90;;;;;;5034839;28;20030;-85
2021/10/16 08:12:37;;;;;;;1999.90;999.90;;;12.00;99.90;;;;;;5034864;28;20027;-86
2021/10/16 08:15:05;;;;;;;1999.90;999.90;;;12.30;99.90;;;;;;5034029;28;20037;-84
2021/10/16 08:17:30;;;;;;;1999.90;999.90;;;12.60;99.90;;;;;;5036148;28;20027;-88
2021/10/16 08:19:56;;;;;;;1999.90;999.90;;;12.90;99.90;;;;;;5035155;28;20033;-84
2021/10/16 08:22:22;;;;;;;1999.90;999.90;;;13.20;99.90;;;;;;5035233;28;20443;-85
2021/10/16 08:24:48;;;;;;;1999.90;999.90;;;13.40;99.90;;;;;;5034731;28;20030;-85
2021/10/16 08:27:14;;;;;;;1999.90;999.90;;;13.50;99.90;;;;;;5034864;28;20032;-79
2021/10/16 08:29:40;;;;;;;1999.90;999.90;;;13.80;99.90;;;;;;5036026;28;20017;-86
2021/10/16 08:32:09;;;;;;;1999.90;999.90;;;14.00;99.00;;;;;;5018350;28;20021;-84
2021/10/16 08:34:34;;;;;;;1999.90;999.90;;;14.10;98.10;;;;;;5017972;28;20546;-85
2021/10/16 08:37:00;;;;;;;1999.90;999.90;;;14.20;96.90;;;;;;5018380;28;20116;-82
2021/10/16 08:39:27;;;;;;;1999.90;999.90;;;14.40;96.80;;;;;;5017799;28;20032;-82
2021/10/16 08:41:53;;;;;;;1999.90;999.90;;;14.50;96.30;;;;;;5018040;28;20021;-84
2021/10/16 08:44:18;;;;;;;1999.90;999.90;;;14.50;95.90;;;;;;5017715;28;20060;-84
2021/10/16 08:46:44;;;;;;;1999.90;999.90;;;14.50;95.00;;;;;;5016585;28;20022;-87
2021/10/16 08:49:14;;;;;;;1999.90;999.90;;;14.50;94.40;;;;;;5016918;28;20083;-87
2021/10/16 08:51:42;;;;;;;1999.90;999.90;;;14.50;94.10;;;;;;5016575;28;20115;-85
2021/10/16 08:54:08;;;;;;;1999.90;999.90;;;14.50;94.70;;;;;;5020530;28;20021;-84
2021/10/16 08:56:33;;;;;;;1999.90;999.90;;;14.60;94.30;;;;;;5020303;28;20116;-85
2021/10/16 08:58:59;;;;;;;1999.90;999.90;;;14.70;94.30;;;;;;5018012;28;20132;-87
2021/10/16 09:01:25;;;;;;;1999.90;999.90;;;14.60;93.70;;;;;;5017588;28;20556;-85
2021/10/16 09:03:50;;;;;;;1999.90;999.90;;;14.60;94.20;;;;;;5017719;28;20021;-85
2021/10/16 09:06:27;;;;;;;1999.90;999.90;;;14.50;93.50;;;;;;5038043;28;20017;-85
2021/10/16 09:08:57;;;;;;;1999.90;999.90;;;14.50;93.70;;;;;;5034987;28;20091;-82
2021/10/16 09:11:44;;;;;;;1999.90;999.90;;;14.50;94.10;;;;;;5017005;28;20010;-79
2021/10/16 09:14:32;;;;;;;1999.90;999.90;;;14.60;94.30;;;;;;5016978;28;20414;-86
2021/10/16 09:16:59;;;;;;;1999.90;999.90;;;14.60;94.20;;;;;;5035972;28;20083;-79
2021/10/16 09:19:31;;;;;;;1999.90;999.90;;;14.60;94.20;;;;;;5019108;28;20016;-81
2021/10/16 09:22:02;;;;;;;1999.90;999.90;;;14.50;94.00;;;;;;5017468;28;20037;-78
2021/10/16 09:24:30;;;;;;;1999.90;999.90;;;14.60;94.20;;;;;;5033715;28;20126;-82
2021/10/16 09:26:59;;;;;;;1999.90;999.90;;;14.70;93.60;;;;;;5016494;28;20071;-80
2021/10/16 09:29:28;;;;;;;1999.90;999.90;;;14.70;93.40;;;;;;5016416;28;20060;-86
2021/10/16 09:32:15;;;;;;;1999.90;999.90;;;14.90;92.90;;;;;;5031868;28;20453;-86
2021/10/16 09:34:43;;;;;;;1999.90;999.90;;;15.00;92.70;;;;;;5031305;28;20603;-81
2021/10/16 09:37:16;;;;;;;1999.90;999.90;;;15.10;92.50;;;;;;5033064;28;20029;-82
2021/10/16 09:39:48;;;;;;;1999.90;999.90;;;15.20;92.40;;;;;;5032535;28;20116;-80
2021/10/16 09:42:30;;;;;;;1999.90;999.90;;;15.20;92.30;;;;;;5033109;28;20032;-89
2021/10/16 09:44:58;;;;;;;1999.90;999.90;;;15.20;91.20;;;;;;5037294;28;20385;-79
2021/10/16 09:47:23;;;;;;;1999.90;999.90;;;15.20;90.80;;;;;;5035648;28;20025;-76
2021/10/16 09:49:54;;;;;;;1999.90;999.90;;;15.10;88.50;;;;;;5032938;28;20021;-81
2021/10/16 09:52:20;;;;;;;1999.90;999.90;;;15.10;87.80;;;;;;5032613;28;20021;-77
2021/10/16 09:54:50;;;;;;;1999.90;999.90;;;15.10;87.50;;;;;;5030992;28;20391;-78
2021/10/16 09:57:20;;;;;;;1999.90;999.90;;;15.10;87.90;;;;;;5031126;28;20480;-76
2021/10/16 09:59:46;;;;;;;1999.90;999.90;;;15.10;88.00;;;;;;5030708;28;20036;-79
2021/10/16 10:02:14;;;;;;;1999.90;999.90;;;15.20;88.90;;;;;;5030959;28;20105;-79
2021/10/16 10:04:42;;;;;;;1999.90;999.90;;;15.20;88.10;;;;;;5032610;28;20029;-78
2021/10/16 10:07:09;;;;;;;1999.90;999.90;;;15.10;87.60;;;;;;5032263;28;20069;-78
2021/10/16 10:09:38;;;;;;;1999.90;999.90;;;15.10;88.60;;;;;;5031603;28;20540;-79
2021/10/16 10:12:04;;;;;;;1999.90;999.90;;;15.00;89.10;;;;;;5031650;28;20461;-79
2021/10/16 10:14:30;;;;;;;1999.90;999.90;;;15.00;89.80;;;;;;5031000;28;20175;-80
2021/10/16 10:17:01;;;;;;;1999.90;999.90;;;15.00;90.10;;;;;;5031580;28;20025;-81
2021/10/16 10:19:29;;;;;;;1999.90;999.90;;;15.10;90.20;;;;;;5032869;28;20018;-79
2021/10/16 10:21:56;;;;;;;1999.90;999.90;;;15.10;89.70;;;;;;5032328;28;20026;-79
2021/10/16 10:24:39;;;;;;;1999.90;999.90;;;15.20;90.40;;;;;;5031206;28;20010;-78
2021/10/16 10:27:10;;;;;;;1999.90;999.90;;;15.40;90.30;;;;;;5031272;28;20029;-77
2021/10/16 10:29:38;;;;;;;1999.90;999.90;;;15.50;90.10;;;;;;5031202;28;20375;-78
2021/10/16 10:32:14;;;;;;;1999.90;999.90;;;15.70;89.20;;;;;;5014333;28;20520;-80
2021/10/16 10:34:42;;;;;;;1999.90;999.90;;;15.90;88.00;;;;;;5014303;28;20547;-77
2021/10/16 10:37:14;;;;;;;1999.90;999.90;;;16.10;86.90;;;;;;5014644;28;20032;-79
2021/10/16 10:39:54;;;;;;;1999.90;999.90;;;16.20;86.10;;;;;;5014391;28;20022;-80
2021/10/16 10:42:23;;;;;;;1999.90;999.90;;;16.30;85.80;;;;;;5032519;28;20025;-79
2021/10/16 10:44:54;;;;;;;1999.90;999.90;;;16.20;87.20;;;;;;5014668;28;20017;-80
2021/10/16 10:47:28;;;;;;;1999.90;999.90;;;16.10;87.80;;;;;;5014537;28;20033;-80
2021/10/16 10:50:08;;;;;;;1999.90;999.90;;;16.00;88.00;;;;;;5017299;28;20020;-80
2021/10/16 10:53:01;;;;;;;1999.90;999.90;;;15.90;88.50;;;;;;5018574;28;20056;-80
2021/10/16 10:55:26;;;;;;;1999.90;999.90;;;15.80;88.10;;;;;;5018185;28;20132;-79
2021/10/16 10:58:02;;;;;;;1999.90;999.90;;;15.70;89.10;;;;;;5036173;28;20072;-79
2021/10/16 11:00:31;;;;;;;;;;;15.80;89.30;;;;;;5036790;28;20461;-79
2021/10/16 11:02:57;;;;;;;1999.90;999.90;;;15.80;88.10;;;;;;5018281;28;19905;-79
2021/10/16 11:05:34;;;;;;;1999.90;999.90;;;15.90;88.10;;;;;;5018253;28;20032;-79
2021/10/16 11:08:14;;;;;;;1999.90;999.90;;;15.90;87.70;;;;;;5018607;28;20116;-78
2021/10/16 11:10:42;;;;;;;1999.90;999.90;;;15.90;86.60;;;;;;5018551;28;20033;-78
2021/10/16 11:13:19;;;;;;;1999.90;999.90;;;16.00;86.60;;;;;;5018696;28;20028;-80
2021/10/16 11:15:59;;;;;;;1999.90;999.90;;;16.10;85.90;;;;;;5035848;28;20094;-79
2021/10/16 11:18:25;;;;;;;1999.90;999.90;;;16.20;82.50;;;;;;5018129;28;20534;-80
2021/10/16 11:20:52;;;;;;;1999.90;999.90;;;16.20;81.30;;;;;;5018357;28;20731;-80
2021/10/16 11:23:18;;;;;;;1999.90;999.90;;;16.10;81.00;;;;;;5018200;28;20014;-79
2021/10/16 11:26:05;;;;;;;1999.90;999.90;;;16.10;78.20;;;;;;5017936;28;20026;-80
2021/10/16 11:28:33;;;;;;;1999.90;999.90;;;16.20;76.60;;;;;;5035832;28;20017;-80
2021/10/16 11:31:00;;;;;;;1999.90;999.90;;;16.20;74.30;;;;;;5025997;28;20056;-79
2021/10/16 11:33:32;;;;;;;1999.90;999.90;;;16.10;75.50;;;;;;5034220;28;20529;-79
2021/10/16 11:35:59;;;;;;;1999.90;999.90;;;16.20;76.40;;;;;;5034089;28;20033;-78
2021/10/16 11:38:28;;;;;;;1999.90;999.90;;;16.30;75.30;;;;;;5034043;28;20074;-80
2021/10/16 11:40:55;;;;;;;1999.90;999.90;;;16.30;76.20;;;;;;5035460;28;20025;-78
2021/10/16 11:43:36;;;;;;;1999.90;999.90;;;16.30;74.40;;;;;;5034608;28;20025;-79
2021/10/16 11:46:04;;;;;;;1999.90;999.90;;;16.30;75.80;;;;;;5035659;28;20033;-83
2021/10/16 11:48:30;;;;;;;1999.90;999.90;;;16.20;75.40;;;;;;5035428;28;20033;-82
2021/10/16 11:51:03;;;;;;;1999.90;999.90;;;16.10;75.80;;;;;;5035256;28;20111;-84
2021/10/16 11:53:32;;;;;;;1999.90;999.90;;;16.20;75.40;;;;;;5035605;28;20025;-83
2021/10/16 11:56:10;;;;;;;1999.90;999.90;;;16.30;75.90;;;;;;5035220;28;20042;-83
2021/10/16 11:58:37;;;;;;;1999.90;999.90;;;16.20;74.70;;;;;;5035468;28;20022;-83
2021/10/16 12:01:11;;;;;;;1999.90;999.90;;;16.10;74.60;;;;;;5035944;28;20053;-83
2021/10/16 12:03:40;;;;;;;1999.90;999.90;;;16.10;75.30;;;;;;5035293;28;20026;-83
2021/10/16 12:06:07;;;;;;;1999.90;999.90;;;16.00;76.40;;;;;;5035184;28;20028;-83